Nearby METAR Reports

 

KCIC - Chico Municipal, California, USA
Distance from station: SSW 12mi, 20km
Updated: Fri, 28-Apr-2017 1:52pm PDT
Few Clouds
Few Clouds
 Wind from NW
Wind: NW 25 mph , 41 km/h, Gust: 31 mph , 50 km/h
Temperature: 68°F , 20°C
Dew Point: 30°F , -1°C
Humidity: 24%
Barometer: 30.05 inHg , 1017.6 hPa
Clouds: Few Clouds
Visibility: 40 miles , 64 km
Cloud details: Few Clouds 20000 ft
2017/04/28 20:52 KCIC 282052Z 32022G27KT 40SM FEW200 20/M01 A3005
KOVE - Oroville, California, USA
Distance from station: SSE 31mi, 50km
Updated: Fri, 28-Apr-2017 1:53pm PDT
Clear
Clear
 Wind from NW
Wind: NW 15 mph , 24 km/h, Gust: 29 mph , 46 km/h
Temperature: 70°F , 21°C
Dew Point: 34°F , 1°C
Humidity: 27%
Barometer: 30.04 inHg , 1017.3 hPa
Clouds: Clear
Visibility: 10 miles , 16 km
2017/04/28 20:53 KOVE 282053Z AUTO 32013G25KT 10SM CLR 21/01 A3004 RMK AO2 SLP175 T02110006 57010
 
KRBL - Red Bluff, California, USA
Distance from station: WNW 31mi, 50km
Updated: Fri, 28-Apr-2017 1:54pm PDT
Clear
Clear
 Wind from NNW
Wind: NNW 17 mph , 28 km/h, Gust: 30 mph , 48 km/h
Temperature: 70°F , 21°C
Dew Point: 30°F , -1°C
Humidity: 23%
Barometer: 30.09 inHg , 1019 hPa
Clouds: Clear
Visibility: 10 miles , 16 km
2017/04/28 20:54 KRBL 282054Z AUTO 33015G26KT 10SM CLR 21/M01 A3009 RMK AO2 PK WND 01029/2009 RAB1956E06B30E43 SLP188 P0000 60000 T02061006 58012 TSNO
KRDD - Redding, California, USA
Distance from station: NW 50mi, 80km
Updated: Fri, 28-Apr-2017 1:53pm PDT
Clear
Clear
 Wind from N
Wind: N 8 mph , 13 km/h, Gust: 20 mph , 31 km/h
Temperature: 70°F , 21°C
Dew Point: 28°F , -2°C
Humidity: 21%
Barometer: 30.10 inHg , 1019.3 hPa
Clouds: Clear
Visibility: 10 miles , 16 km
2017/04/28 20:53 KRDD 282053Z 35007G17KT 10SM CLR 21/M02 A3010 RMK AO2 SLP190 T02061017 58013
 
KMYV - Marysville, California, USA
Distance from station: S 59mi, 95km
Updated: Fri, 28-Apr-2017 1:53pm PDT
Clear
Clear
 Wind from NNW
Wind: NNW 22 mph , 35 km/h, Gust: 33 mph , 54 km/h
Temperature: 72°F , 22°C
Dew Point: 34°F , 1°C
Humidity: 25%
Barometer: 30.01 inHg , 1016.3 hPa
Clouds: Clear
Visibility: 10 miles , 16 km
2017/04/28 20:53 KMYV 282053Z AUTO 33019G29KT 10SM CLR 22/01 A3001 RMK AO2 PK WND 31029/2033 SLP167 T02170006 58015
KBAB - Beale Afb/Marysv, California, USA
Distance from station: SSE 59mi, 96km
Updated: Fri, 28-Apr-2017 1:58pm PDT
Few Clouds
Few Clouds
 Wind from NW
Wind: NW 21 mph , 33 km/h, Gust: 29 mph , 46 km/h
Temperature: 72°F , 22°C
Dew Point: 36°F , 2°C
Humidity: 27%
Barometer: 29.99 inHg , 1015.6 hPa
Clouds: Few Clouds
Visibility: 10 miles , 16 km
Cloud details: Few Clouds 20000 ft
2017/04/28 20:58 KBAB 282058Z AUTO 31018G25KT 10SM FEW200 22/02 A2999 RMK AO2 PK WND 29027/25 SLP158 T02150024 57014 $
 
KGOO - Grass Valley, California, USA
Distance from station: SE 63mi, 102km
Updated: Fri, 28-Apr-2017 2:40pm PDT
Clear
Clear
 Wind from ENE
Wind: ENE 13 mph , 20 km/h, Gust: 21 mph , 33 km/h
Temperature: 59°F , 15°C
Dew Point: 19°F , -7°C
Humidity: 21%
Barometer: 30.05 inHg , 1017.6 hPa
Clouds: Clear
Visibility: 10 miles , 16 km
2017/04/28 21:40 KGOO 282140Z AUTO 06011G18KT 10SM CLR 15/M07 A3005 RMK AO1
KBLU - Emigrant Gap, California, USA
Distance from station: SE 71mi, 115km
Updated: Fri, 28-Apr-2017 1:52pm PDT
Clear
Clear
 Wind from NNE
Wind: NNE 10 mph , 17 km/h, Gust: 18 mph , 30 km/h
Temperature: 48°F , 9°C
Wind Chill: 44°F , 7°C
Dew Point: 18°F , -8°C
Humidity: 29%
Barometer: 30.08 inHg , 1018.6 hPa
Clouds: Clear
Visibility: 10 miles , 16 km
2017/04/28 20:52 KBLU 282052Z AUTO 02009G16KT 340V060 10SM CLR 09/M08 A3008 RMK AO2 SLP157 T00941083 51005 TSNO
 
KLHM - Lincoln, California, USA
Distance from station: SSE 74mi, 119km
Updated: Fri, 28-Apr-2017 2:35pm PDT
Clear
Clear
 Wind from NW
Wind: NW 23 mph , 37 km/h, Gust: 30 mph , 48 km/h
Temperature: 72°F , 22°C
Dew Point: 32°F , 0°C
Humidity: 23%
Barometer: 29.99 inHg , 1015.6 hPa
Clouds: Clear
Visibility: 10 miles , 16 km
2017/04/28 21:35 KLHM 282135Z AUTO 32020G26KT 10SM CLR 22/00 A2999 RMK AO1
KAUN - Auburn Muni, California, USA
Distance from station: SSE 77mi, 123km
Updated: Fri, 28-Apr-2017 2:35pm PDT
Clear
Clear
 Wind from WNW
Wind: WNW 14 mph , 22 km/h, Gust: 22 mph , 35 km/h
Temperature: 66°F , 19°C
Dew Point: 36°F , 2°C
Humidity: 32%
Barometer: 30.00 inHg , 1015.9 hPa
Clouds: Clear
Visibility: 10 miles , 16 km
2017/04/28 21:35 KAUN 282135Z AUTO 30012G19KT 10SM CLR 19/02 A3000 RMK AO1
 
KO54 - Weaverville, California, USA
Distance from station: NW 84mi, 135km
Updated: Fri, 28-Apr-2017 2:15pm PDT

 Wind from NE
Wind: NE 6 mph , 9 km/h
Temperature: 64°F , 18°C
Dew Point: 16°F , -9°C
Humidity: 15%
Barometer: 30.13 inHg , 1020.3 hPa
Visibility: 10 miles , 16 km
2017/04/28 21:15 KO54 282115Z AUTO 05005KT 10SM 18/M09 A3013 RMK AO1
KSMF - Sacramento/Metro, California, USA
Distance from station: S 86mi, 139km
Updated: Fri, 28-Apr-2017 1:53pm PDT
Few Clouds
Few Clouds
 Wind from NW
Wind: NW 21 mph , 33 km/h, Gust: 33 mph , 54 km/h
Temperature: 72°F , 22°C
Dew Point: 34°F , 1°C
Humidity: 25%
Barometer: 30.00 inHg , 1015.9 hPa
Clouds: Few Clouds
Visibility: 10 miles , 16 km
Cloud details: Few Clouds 25000 ft
2017/04/28 20:53 KSMF 282053Z 32018G29KT 10SM FEW250 22/01 A3000 RMK AO2 PK WND 33029/2044 SLP159 T02170006 58016
 
KMCC - Mcclellan Afb, California, USA
Distance from station: SSE 90mi, 145km
Updated: Fri, 28-Apr-2017 2:35pm PDT
Clear
Clear
 Wind from NW
Wind: NW 21 mph , 33 km/h, Gust: 33 mph , 54 km/h
Temperature: 72°F , 22°C
Dew Point: 32°F , 0°C
Humidity: 23%
Barometer: 30.00 inHg , 1015.9 hPa
Clouds: Clear
Visibility: 9 miles , 14 km
2017/04/28 21:35 KMCC 282135Z AUTO 32018G29KT 9SM CLR 22/00 A3000 RMK AO2
KTRK - Truckee Tahoe, California, USA
Distance from station: ESE 96mi, 155km
Updated: Fri, 28-Apr-2017 1:45pm PDT
Few Clouds
Few Clouds
 Wind from N
Wind: N 16 mph , 26 km/h, Gust: 25 mph , 41 km/h
Temperature: 45°F , 7°C
Wind Chill: 38°F , 3°C
Dew Point: 18°F , -8°C
Humidity: 34%
Barometer: 30.11 inHg , 1019.6 hPa
Clouds: Few Clouds
Visibility: 10 miles , 16 km
Cloud details: Few Clouds 5000 ft
2017/04/28 20:45 KTRK 282045Z 01014G22KT 10SM FEW050 07/M08 A3011 RMK NOSPECI
 
KUKI - Ukiah, California, USA
Distance from station: SW 97mi, 156km
Updated: Fri, 28-Apr-2017 1:56pm PDT
Clear
Clear
 Wind from NNW
Wind: NNW 12 mph , 19 km/h, Gust: 17 mph , 28 km/h
Temperature: 72°F , 22°C
Dew Point: 37°F , 3°C
Humidity: 29%
Barometer: 30.06 inHg , 1017.9 hPa
Clouds: Clear
Visibility: 10 miles , 16 km
2017/04/28 20:56 KUKI 282056Z AUTO 33010G15KT 10SM CLR 22/03 A3006 RMK AO2 SLP175 T02170028 58015
KEDU - Davis, California, USA
Distance from station: S 97mi, 157km
Updated: Fri, 28-Apr-2017 2:35pm PDT
Clear
Clear
 Wind from NNW
Wind: NNW 20 mph , 31 km/h, Gust: 31 mph , 50 km/h
Temperature: 72°F , 22°C
Dew Point: 21°F , -6°C
Humidity: 15%
Barometer: 30.03 inHg , 1016.9 hPa
Clouds: Clear
Visibility: 10 miles , 16 km
2017/04/28 21:35 KEDU 282135Z AUTO 34017G27KT 10SM CLR 22/M06 A3003 RMK AO1
 
KMHR - Mather Field, California, USA
Distance from station: SSE 100mi, 161km
Updated: Fri, 28-Apr-2017 1:45pm PDT
Partly cloudy
Partly cloudy
 Wind from WNW
Wind: WNW 17 mph , 28 km/h, Gust: 26 mph , 43 km/h
Temperature: 72°F , 22°C
Dew Point: 28°F , -2°C
Humidity: 20%
Barometer: 29.99 inHg , 1015.6 hPa
Clouds: Partly cloudy
Visibility: 10 miles , 16 km
Cloud details: Partly cloudy 20000 ft
2017/04/28 20:45 KMHR 282045Z 30015G23KT 10SM SCT200 22/M02 A2999
KMHS - Mount Shasta, California, USA
Distance from station: NNW 100mi, 161km
Updated: Fri, 28-Apr-2017 1:56pm PDT
Clear
Clear
 
Temperature: 55°F , 13°C
Dew Point: 28°F , -2°C
Humidity: 36%
Barometer: 30.17 inHg , 1021.7 hPa
Clouds: Clear
Visibility: 10 miles , 16 km
2017/04/28 20:56 KMHS 282056Z AUTO 10SM CLR 13/M02 A3017 RMK AO2 SLP234 T01281022 56006
 
KRTS - Reno/Stead, Nevada, USA
Distance from station: E 100mi, 161km
Updated: Fri, 28-Apr-2017 2:35pm PDT
Few Clouds
Few Clouds
 Wind from E
Wind: E 13 mph , 20 km/h, Gust: 18 mph , 30 km/h
Temperature: 46°F , 8°C
Wind Chill: 40°F , 4°C
Dew Point: 16°F , -9°C
Humidity: 29%
Barometer: 30.13 inHg , 1020.3 hPa
Clouds: Few Clouds
Visibility: 10 miles , 16 km
Cloud details: Few Clouds 7000 ft
2017/04/28 21:35 KRTS 282135Z AUTO 08011G16KT 10SM FEW070 08/M09 A3013 RMK AO2
KSAC - Sacramento, California, USA
Distance from station: S 100mi, 162km
Updated: Fri, 28-Apr-2017 1:53pm PDT
Clear
Clear
 Wind from NNW
Wind: NNW 26 mph , 43 km/h, Gust: 37 mph , 59 km/h
Temperature: 72°F , 22°C
Dew Point: 30°F , -1°C
Humidity: 22%
Barometer: 30.00 inHg , 1015.9 hPa
Clouds: Clear
Visibility: 10 miles , 16 km
2017/04/28 20:53 KSAC 282053Z 34023G32KT 10SM CLR 22/M01 A3000 RMK AO2 PK WND 34032/2052 RAB25E52 SLP160 P0000 60000 T02221011 58014